Time;durP1;ratioP1;P1;durP2;ratioP2;P2;SDS_P1;SDS_P2;PMS_P1;PMS_P2;Temp;Humidity;BMP_temperature;BMP_pressure;BME280_temperature;BME280_humidity;BME280_pressure;Samples;Min_cycle;Max_cycle;Signal;HPM_P1;HPM_P2
2022/08/29 00:00:46;;;;;;;11.18;4.55;;;;;;;;;;2375473;56;21030;-78
2022/08/29 00:03:13;;;;;;;18.33;5.50;;;;;;;;;;2375505;56;21089;-78
2022/08/29 00:05:40;;;;;;;17.65;4.80;;;;;;;;;;2627203;52;21058;-75
2022/08/29 00:08:07;;;;;;;25.30;6.30;;;;;;;;;;2374941;56;21039;-78
2022/08/29 00:10:36;;;;;;;11.98;4.62;;;;;;;;;;2628871;52;21114;-76
2022/08/29 00:13:04;;;;;;;20.45;5.95;;;;;;;;;;2375573;56;21039;-79
2022/08/29 00:15:31;;;;;;;12.13;4.80;;;;;;;;;;2375328;56;21066;-79
2022/08/29 00:17:59;;;;;;;13.88;4.97;;;;;;;;;;2376120;56;21090;-79
2022/08/29 00:20:27;;;;;;;21.60;6.37;;;;;;;;;;2376177;56;21086;-79
2022/08/29 00:22:54;;;;;;;13.95;5.32;;;;;;;;;;2630425;52;21027;-78
2022/08/29 00:25:21;;;;;;;15.18;5.22;;;;;;;;;;2375012;56;21046;-76
2022/08/29 00:27:49;;;;;;;16.15;6.05;;;;;;;;;;2374811;56;21097;-79
2022/08/29 00:30:17;;;;;;;15.25;6.57;;;;;;;;;;2374326;56;21062;-77
2022/08/29 00:32:44;;;;;;;19.75;6.65;;;;;;;;;;2374747;56;21050;-78
2022/08/29 00:35:12;;;;;;;14.95;6.22;;;;;;;;;;2373668;56;21027;-78
2022/08/29 00:37:39;;;;;;;20.80;5.68;;;;;;;;;;2375376;56;21111;-79
2022/08/29 00:40:08;;;;;;;13.82;6.68;;;;;;;;;;2374712;56;21031;-77
2022/08/29 00:42:35;;;;;;;20.80;7.40;;;;;;;;;;2627765;52;21136;-80
2022/08/29 00:45:04;;;;;;;17.70;6.40;;;;;;;;;;2375006;56;21019;-76
2022/08/29 00:47:32;;;;;;;19.65;6.78;;;;;;;;;;2374679;56;21074;-76
2022/08/29 00:50:00;;;;;;;15.30;6.07;;;;;;;;;;2375494;56;21051;-78
2022/08/29 00:52:31;;;;;;;12.93;6.28;;;;;;;;;;2629007;52;21092;-77
2022/08/29 00:54:58;;;;;;;14.87;7.12;;;;;;;;;;2375253;56;21549;-79
2022/08/29 00:57:26;;;;;;;13.88;6.90;;;;;;;;;;2373913;56;21043;-77
2022/08/29 00:59:53;;;;;;;12.10;6.60;;;;;;;;;;2374550;56;21054;-77
2022/08/29 01:02:20;;;;;;;18.30;7.30;;;;;;;;;;2578667;51;21582;-77
2022/08/29 01:04:47;;;;;;;16.87;6.85;;;;;;;;;;2301302;58;21054;-77
2022/08/29 01:07:15;;;;;;;15.15;6.82;;;;;;;;;;2300018;58;21137;-77
2022/08/29 01:09:43;;;;;;;17.35;7.25;;;;;;;;;;2300341;58;21556;-79
2022/08/29 01:12:16;;;;;;;16.20;6.68;;;;;;;;;;2302559;58;21062;-80
2022/08/29 01:14:46;;;;;;;;;;;;;;;;;;2306667;58;21665;-80
2022/08/29 01:17:16;;;;;;;12.15;5.93;;;;;;;;;;2539717;54;20080;-80
2022/08/29 01:19:45;;;;;;;18.35;6.85;;;;;;;;;;2302440;58;21376;-80
2022/08/29 01:22:29;;;;;;;21.12;6.97;;;;;;;;;;2301804;58;21093;-80
2022/08/29 01:24:57;;;;;;;19.90;7.20;;;;;;;;;;2301638;58;21070;-79
2022/08/29 01:27:28;;;;;;;19.33;6.70;;;;;;;;;;2301759;58;21110;-80
2022/08/29 01:29:55;;;;;;;16.85;6.97;;;;;;;;;;2302291;58;21063;-80
2022/08/29 01:32:24;;;;;;;17.95;6.85;;;;;;;;;;2302541;58;21118;-80
2022/08/29 01:34:51;;;;;;;17.85;6.75;;;;;;;;;;2301686;58;21126;-79
2022/08/29 01:37:19;;;;;;;14.13;6.68;;;;;;;;;;2301999;58;21134;-80
2022/08/29 01:39:46;;;;;;;12.57;6.85;;;;;;;;;;2538828;54;21545;-80
2022/08/29 01:42:14;;;;;;;18.27;6.47;;;;;;;;;;2302464;58;21043;-80
2022/08/29 01:44:42;;;;;;;19.35;6.97;;;;;;;;;;2302391;58;21597;-79
2022/08/29 01:47:10;;;;;;;16.52;6.47;;;;;;;;;;2302811;58;21073;-80
2022/08/29 01:49:37;;;;;;;16.37;6.78;;;;;;;;;;2303009;58;21054;-80
2022/08/29 01:52:05;;;;;;;17.48;6.65;;;;;;;;;;2302609;58;21153;-80
2022/08/29 01:54:33;;;;;;;20.55;6.40;;;;;;;;;;2540560;54;21071;-80
2022/08/29 01:57:00;;;;;;;14.25;6.90;;;;;;;;;;2301841;58;21042;-80
2022/08/29 01:59:28;;;;;;;23.50;7.62;;;;;;;;;;2540683;54;21118;-79
2022/08/29 02:01:58;;;;;;;24.98;7.57;;;;;;;;;;2302880;58;21572;-80
2022/08/29 02:04:26;;;;;;;16.85;6.80;;;;;;;;;;2302433;58;21129;-80
2022/08/29 02:06:54;;;;;;;20.02;6.87;;;;;;;;;;2301475;58;21082;-80
2022/08/29 02:09:21;;;;;;;17.33;6.87;;;;;;;;;;2539343;54;21062;-80
2022/08/29 02:11:48;;;;;;;11.45;6.03;;;;;;;;;;2540944;54;21058;-80
2022/08/29 02:14:16;;;;;;;22.17;7.03;;;;;;;;;;2540483;54;21170;-80
2022/08/29 02:16:43;;;;;;;14.25;6.57;;;;;;;;;;2302248;58;21145;-80
2022/08/29 02:19:10;;;;;;;16.80;6.40;;;;;;;;;;2302631;58;21051;-80
2022/08/29 02:21:37;;;;;;;16.25;6.35;;;;;;;;;;2302619;58;21066;-79
2022/08/29 02:24:05;;;;;;;17.45;6.00;;;;;;;;;;2302079;58;21039;-80
2022/08/29 02:26:32;;;;;;;19.17;7.45;;;;;;;;;;2301467;58;21071;-80
2022/08/29 02:29:00;;;;;;;15.25;6.60;;;;;;;;;;2302926;58;21173;-79
2022/08/29 02:31:29;;;;;;;12.90;6.57;;;;;;;;;;2539516;54;21073;-80
2022/08/29 02:33:56;;;;;;;13.13;6.45;;;;;;;;;;2539892;54;21131;-80
2022/08/29 02:36:23;;;;;;;10.50;5.68;;;;;;;;;;2301034;58;21063;-80
2022/08/29 02:38:50;;;;;;;13.35;6.00;;;;;;;;;;2302420;58;21106;-80
2022/08/29 02:41:17;;;;;;;16.35;7.53;;;;;;;;;;2302641;58;21054;-80
2022/08/29 02:43:44;;;;;;;14.50;6.97;;;;;;;;;;2302827;58;21074;-80
2022/08/29 02:46:15;;;;;;;14.18;7.37;;;;;;;;;;2302342;58;21098;-80
2022/08/29 02:48:42;;;;;;;14.38;6.70;;;;;;;;;;2302524;58;21102;-80
2022/08/29 02:51:09;;;;;;;16.45;7.28;;;;;;;;;;2540204;54;21076;-80
2022/08/29 02:53:36;;;;;;;13.35;7.00;;;;;;;;;;2301664;58;22364;-80
2022/08/29 02:56:04;;;;;;;11.57;6.60;;;;;;;;;;2300481;58;21075;-80
2022/08/29 02:58:31;;;;;;;13.82;7.50;;;;;;;;;;2300634;58;21130;-80
2022/08/29 03:00:58;;;;;;;15.05;6.47;;;;;;;;;;2302466;58;21043;-80
2022/08/29 03:03:26;;;;;;;16.92;7.82;;;;;;;;;;2302956;58;21046;-79
2022/08/29 03:05:53;;;;;;;14.63;7.32;;;;;;;;;;2302352;58;21098;-80
2022/08/29 03:08:20;;;;;;;15.77;7.00;;;;;;;;;;2302492;58;21063;-80
2022/08/29 03:10:47;;;;;;;16.52;8.68;;;;;;;;;;2303195;58;21063;-79
2022/08/29 03:13:15;;;;;;;14.70;7.53;;;;;;;;;;2302119;58;21631;-79
2022/08/29 03:15:42;;;;;;;15.48;7.30;;;;;;;;;;2301663;58;21074;-80
2022/08/29 03:18:09;;;;;;;13.88;6.68;;;;;;;;;;2302328;58;21802;-80
2022/08/29 03:20:37;;;;;;;17.85;7.28;;;;;;;;;;2302688;58;21054;-80
2022/08/29 03:23:05;;;;;;;11.27;6.68;;;;;;;;;;2303011;58;21090;-80
2022/08/29 03:25:32;;;;;;;14.32;6.93;;;;;;;;;;2302440;58;21566;-79
2022/08/29 03:27:59;;;;;;;17.15;7.30;;;;;;;;;;2302130;58;21071;-79
2022/08/29 03:30:27;;;;;;;11.35;7.03;;;;;;;;;;2302557;58;21628;-80
2022/08/29 03:32:54;;;;;;;14.60;7.75;;;;;;;;;;2301721;58;21114;-80
2022/08/29 03:35:21;;;;;;;13.20;6.45;;;;;;;;;;2301479;58;21113;-80
2022/08/29 03:37:48;;;;;;;12.85;7.62;;;;;;;;;;2302859;58;21050;-80
2022/08/29 03:40:16;;;;;;;12.65;6.65;;;;;;;;;;2540065;54;21122;-80
2022/08/29 03:42:44;;;;;;;9.80;6.97;;;;;;;;;;2302676;58;21062;-79
2022/08/29 03:45:13;;;;;;;15.85;6.78;;;;;;;;;;2301751;58;21063;-80
2022/08/29 03:47:40;;;;;;;13.00;7.43;;;;;;;;;;2301293;58;21056;-80
2022/08/29 03:50:08;;;;;;;13.90;8.02;;;;;;;;;;2302013;58;21062;-80
2022/08/29 03:52:35;;;;;;;12.88;6.70;;;;;;;;;;2302367;58;21560;-80
2022/08/29 03:55:03;;;;;;;11.80;6.68;;;;;;;;;;2302464;58;21082;-80
2022/08/29 03:57:31;;;;;;;10.40;6.43;;;;;;;;;;2301747;58;21058;-80
2022/08/29 03:59:59;;;;;;;11.70;6.45;;;;;;;;;;2301492;58;22044;-79
2022/08/29 04:02:26;;;;;;;15.65;7.62;;;;;;;;;;2300952;58;21133;-79
2022/08/29 04:05:08;;;;;;;12.60;7.07;;;;;;;;;;2302125;58;21038;-81
2022/08/29 04:07:47;;;;;;;21.40;9.02;;;;;;;;;;2301100;58;21137;-82
2022/08/29 04:10:16;;;;;;;13.45;8.10;;;;;;;;;;2303470;58;21529;-80
2022/08/29 04:12:43;;;;;;;12.98;8.57;;;;;;;;;;2541625;54;21038;-80
2022/08/29 04:15:10;;;;;;;18.35;9.18;;;;;;;;;;2303680;58;21061;-81
2022/08/29 04:17:38;;;;;;;16.95;8.88;;;;;;;;;;2300894;58;21133;-79
2022/08/29 04:20:07;;;;;;;17.05;9.45;;;;;;;;;;2303304;58;21078;-79
2022/08/29 04:22:35;;;;;;;14.05;8.80;;;;;;;;;;2302745;58;21046;-80
2022/08/29 04:25:03;;;;;;;16.77;9.60;;;;;;;;;;2301958;58;21335;-80
2022/08/29 04:27:30;;;;;;;21.48;10.35;;;;;;;;;;2300189;58;21102;-79
2022/08/29 04:29:57;;;;;;;17.60;11.45;;;;;;;;;;2302125;58;21204;-79
2022/08/29 04:32:25;;;;;;;14.32;8.40;;;;;;;;;;2300633;58;21114;-80
2022/08/29 04:34:55;;;;;;;13.77;7.82;;;;;;;;;;2300106;58;21109;-79
2022/08/29 04:37:22;;;;;;;15.63;8.63;;;;;;;;;;2300235;58;21138;-79
2022/08/29 04:39:49;;;;;;;16.55;9.48;;;;;;;;;;2301495;58;21137;-79
2022/08/29 04:42:18;;;;;;;12.82;8.57;;;;;;;;;;2301696;58;21113;-80
2022/08/29 04:44:46;;;;;;;14.18;8.82;;;;;;;;;;2302085;58;21055;-79
2022/08/29 04:47:14;;;;;;;13.75;7.93;;;;;;;;;;2301567;58;21047;-80
2022/08/29 04:49:41;;;;;;;20.17;10.85;;;;;;;;;;2301866;58;21616;-80
2022/08/29 04:52:09;;;;;;;15.38;10.00;;;;;;;;;;2302516;58;21129;-80
2022/08/29 04:54:36;;;;;;;14.63;9.77;;;;;;;;;;2302162;58;21126;-80
2022/08/29 04:57:03;;;;;;;10.27;7.40;;;;;;;;;;2301932;58;21066;-79
2022/08/29 04:59:30;;;;;;;17.00;9.48;;;;;;;;;;2302264;58;21074;-80
2022/08/29 05:01:58;;;;;;;12.60;7.85;;;;;;;;;;2301590;58;21098;-79
2022/08/29 05:04:26;;;;;;;9.02;6.62;;;;;;;;;;2302614;58;21066;-79
2022/08/29 05:06:53;;;;;;;12.57;8.63;;;;;;;;;;2301508;58;21324;-80
2022/08/29 05:09:20;;;;;;;10.25;6.75;;;;;;;;;;2302552;58;21090;-80
2022/08/29 05:11:48;;;;;;;6.95;5.40;;;;;;;;;;2302075;58;21133;-80
2022/08/29 05:14:15;;;;;;;7.60;5.28;;;;;;;;;;2301849;58;21090;-79
2022/08/29 05:16:43;;;;;;;8.68;5.28;;;;;;;;;;2539474;54;21055;-80
2022/08/29 05:19:10;;;;;;;10.70;5.53;;;;;;;;;;2302620;58;21636;-79
2022/08/29 05:21:38;;;;;;;6.97;4.85;;;;;;;;;;2302053;58;21067;-80
2022/08/29 05:24:06;;;;;;;6.90;4.80;;;;;;;;;;2302355;58;21644;-80
2022/08/29 05:26:35;;;;;;;7.05;4.85;;;;;;;;;;2301505;58;21062;-83
2022/08/29 05:29:03;;;;;;;9.85;5.18;;;;;;;;;;2300892;58;21130;-81
2022/08/29 05:31:31;;;;;;;5.37;4.55;;;;;;;;;;2301872;58;21452;-80
2022/08/29 05:33:58;;;;;;;6.80;4.20;;;;;;;;;;2301799;58;21691;-80
2022/08/29 05:36:25;;;;;;;10.60;5.43;;;;;;;;;;2301507;58;21094;-80
2022/08/29 05:38:53;;;;;;;7.93;4.80;;;;;;;;;;2302608;58;21074;-79
2022/08/29 05:41:20;;;;;;;7.62;4.28;;;;;;;;;;2302142;58;21062;-80
2022/08/29 05:43:47;;;;;;;7.57;4.45;;;;;;;;;;2302575;58;21058;-80
2022/08/29 05:46:14;;;;;;;4.78;4.00;;;;;;;;;;2301561;58;21066;-79
2022/08/29 05:48:42;;;;;;;8.00;4.10;;;;;;;;;;2302739;58;21568;-80
2022/08/29 05:51:15;;;;;;;6.68;3.97;;;;;;;;;;2302257;58;21115;-79
2022/08/29 05:53:41;;;;;;;;;;;;;;;;;;2305925;58;21086;-80
2022/08/29 05:56:08;;;;;;;4.95;3.80;;;;;;;;;;2302229;58;20120;-79
2022/08/29 05:58:35;;;;;;;3.25;2.90;;;;;;;;;;2302643;58;21062;-80
2022/08/29 06:01:03;;;;;;;7.97;3.70;;;;;;;;;;2302864;58;21059;-79
2022/08/29 06:03:30;;;;;;;7.05;3.00;;;;;;;;;;2538900;54;21165;-79
2022/08/29 06:05:57;;;;;;;5.47;3.78;;;;;;;;;;2301279;58;21378;-79
2022/08/29 06:08:24;;;;;;;4.93;3.97;;;;;;;;;;2302666;58;21182;-80
2022/08/29 06:10:51;;;;;;;6.30;3.72;;;;;;;;;;2302570;58;21050;-80
2022/08/29 06:13:18;;;;;;;3.53;3.10;;;;;;;;;;2302764;58;21106;-80
2022/08/29 06:15:45;;;;;;;3.65;3.08;;;;;;;;;;2302072;58;21055;-80
2022/08/29 06:18:12;;;;;;;3.30;3.00;;;;;;;;;;2302312;58;21133;-79
2022/08/29 06:20:40;;;;;;;3.45;3.10;;;;;;;;;;2302095;58;21038;-80
2022/08/29 06:23:07;;;;;;;3.78;3.12;;;;;;;;;;2302248;58;21557;-79
2022/08/29 06:25:34;;;;;;;5.68;3.33;;;;;;;;;;2302226;58;21613;-79
2022/08/29 06:28:02;;;;;;;4.12;2.80;;;;;;;;;;2302703;58;21113;-80
2022/08/29 06:30:31;;;;;;;6.12;3.10;;;;;;;;;;2302622;58;21136;-79
2022/08/29 06:32:58;;;;;;;3.72;2.50;;;;;;;;;;2302512;58;21082;-79
2022/08/29 06:35:25;;;;;;;3.55;2.80;;;;;;;;;;2300870;58;21086;-79
2022/08/29 06:37:52;;;;;;;3.67;3.12;;;;;;;;;;2302270;58;21070;-79
2022/08/29 06:40:19;;;;;;;6.60;3.22;;;;;;;;;;2302160;58;21046;-79
2022/08/29 06:42:46;;;;;;;6.97;3.42;;;;;;;;;;2302517;58;21054;-80
2022/08/29 06:45:13;;;;;;;3.80;3.10;;;;;;;;;;2302455;58;21595;-80
2022/08/29 06:47:41;;;;;;;4.28;2.87;;;;;;;;;;2302177;58;21122;-79
2022/08/29 06:50:08;;;;;;;4.35;2.75;;;;;;;;;;2539991;54;21054;-80
2022/08/29 06:52:36;;;;;;;4.57;3.62;;;;;;;;;;2302739;58;21047;-80
2022/08/29 06:55:04;;;;;;;5.12;3.30;;;;;;;;;;2301969;58;21580;-79
2022/08/29 06:57:31;;;;;;;7.57;3.03;;;;;;;;;;2302329;58;21079;-80
2022/08/29 06:59:58;;;;;;;3.00;2.55;;;;;;;;;;2302661;58;21572;-79
2022/08/29 07:02:25;;;;;;;3.35;2.70;;;;;;;;;;2520632;53;71150;-82
2022/08/29 07:04:52;;;;;;;3.90;2.60;;;;;;;;;;2270393;59;21141;-82
2022/08/29 07:07:19;;;;;;;3.87;2.60;;;;;;;;;;2270206;59;21092;-82
2022/08/29 07:09:46;;;;;;;3.97;2.80;;;;;;;;;;2500669;55;21160;-82
2022/08/29 07:12:13;;;;;;;3.25;2.53;;;;;;;;;;2269974;59;21357;-83
2022/08/29 07:14:40;;;;;;;2.50;2.30;;;;;;;;;;2498847;55;21072;-82
2022/08/29 07:17:07;;;;;;;4.25;2.90;;;;;;;;;;2498419;55;21062;-83
2022/08/29 07:19:34;;;;;;;4.37;3.17;;;;;;;;;;2269175;59;21061;-82
2022/08/29 07:22:01;;;;;;;3.47;2.45;;;;;;;;;;2499158;55;21546;-82
2022/08/29 07:24:28;;;;;;;3.00;2.33;;;;;;;;;;2268570;59;21125;-82
2022/08/29 07:26:55;;;;;;;4.45;3.17;;;;;;;;;;2498609;55;21065;-82
2022/08/29 07:29:22;;;;;;;4.07;3.40;;;;;;;;;;2499101;55;21632;-83
2022/08/29 07:31:49;;;;;;;5.05;3.00;;;;;;;;;;2269244;59;21054;-82
2022/08/29 07:34:18;;;;;;;5.10;2.67;;;;;;;;;;2499336;55;21041;-82
2022/08/29 07:36:45;;;;;;;5.57;3.12;;;;;;;;;;2268623;59;21050;-82
2022/08/29 07:39:13;;;;;;;2.42;2.22;;;;;;;;;;2269479;59;21108;-82
2022/08/29 07:41:41;;;;;;;3.05;2.33;;;;;;;;;;2269194;59;21145;-82
2022/08/29 07:44:09;;;;;;;4.18;2.40;;;;;;;;;;2499812;55;21553;-82
2022/08/29 07:46:36;;;;;;;4.03;2.45;;;;;;;;;;2498769;55;21728;-82
2022/08/29 07:49:03;;;;;;;5.95;2.53;;;;;;;;;;2499307;55;21672;-82
2022/08/29 07:51:30;;;;;;;3.60;2.65;;;;;;;;;;2499111;55;21057;-83
2022/08/29 07:53:57;;;;;;;5.30;2.72;;;;;;;;;;2498524;55;21537;-82
2022/08/29 07:56:26;;;;;;;3.47;2.25;;;;;;;;;;2498158;55;21053;-82
2022/08/29 07:58:54;;;;;;;5.65;2.78;;;;;;;;;;2498717;55;21659;-83
2022/08/29 08:01:21;;;;;;;3.78;2.47;;;;;;;;;;2499047;55;21084;-84
2022/08/29 08:03:49;;;;;;;3.95;2.50;;;;;;;;;;2499032;55;21056;-82
2022/08/29 08:06:16;;;;;;;2.60;2.40;;;;;;;;;;2497231;55;21093;-82
2022/08/29 08:08:44;;;;;;;2.62;2.15;;;;;;;;;;2269352;59;21081;-82
2022/08/29 08:11:11;;;;;;;2.72;2.15;;;;;;;;;;2269277;59;21053;-82
2022/08/29 08:13:38;;;;;;;4.80;2.60;;;;;;;;;;2497639;55;21065;-83
2022/08/29 08:16:06;;;;;;;2.70;2.00;;;;;;;;;;2268729;59;21057;-82
2022/08/29 08:18:35;;;;;;;5.05;2.00;;;;;;;;;;2498953;55;21112;-81
2022/08/29 08:21:02;;;;;;;3.30;2.00;;;;;;;;;;2499327;55;21131;-81
2022/08/29 08:23:29;;;;;;;1.70;1.60;;;;;;;;;;2498603;55;21061;-81
2022/08/29 08:25:56;;;;;;;2.83;2.05;;;;;;;;;;2496443;55;21053;-82
2022/08/29 08:28:23;;;;;;;4.80;1.92;;;;;;;;;;2268453;59;21057;-82
2022/08/29 08:30:50;;;;;;;4.07;2.03;;;;;;;;;;2495872;55;21061;-82
2022/08/29 08:33:17;;;;;;;3.33;2.00;;;;;;;;;;2264594;59;21077;-82
2022/08/29 08:35:44;;;;;;;2.95;1.70;;;;;;;;;;2496488;55;21721;-82
2022/08/29 08:38:11;;;;;;;3.72;1.75;;;;;;;;;;2268326;59;21144;-82
2022/08/29 08:40:42;;;;;;;3.40;1.83;;;;;;;;;;2268556;59;21585;-82
2022/08/29 08:43:10;;;;;;;9.77;2.03;;;;;;;;;;2496982;55;21041;-82
2022/08/29 08:45:38;;;;;;;2.67;1.90;;;;;;;;;;2495774;55;21129;-81
2022/08/29 08:48:08;;;;;;;4.37;1.70;;;;;;;;;;2266784;59;21065;-82
2022/08/29 08:50:42;;;;;;;1.80;1.62;;;;;;;;;;2497847;55;21053;-83
2022/08/29 08:55:48;;;;;;;3.83;1.70;;;;;;;;;;2604439;52;22065;-77
2022/08/29 08:58:24;;;;;;;3.37;1.55;;;;;;;;;;2374855;56;21118;-78
2022/08/29 09:00:54;;;;;;;4.22;1.62;;;;;;;;;;2375342;56;21034;-78
2022/08/29 09:03:39;;;;;;;1.77;1.50;;;;;;;;;;2373578;56;21106;-78
2022/08/29 09:06:12;;;;;;;2.03;1.30;;;;;;;;;;2374926;56;21281;-81
2022/08/29 09:08:45;;;;;;;1.48;1.30;;;;;;;;;;2629073;52;21090;-79
2022/08/29 09:11:18;;;;;;;1.92;1.30;;;;;;;;;;2376165;56;21034;-78
2022/08/29 09:13:49;;;;;;;1.80;1.45;;;;;;;;;;2375560;56;21047;-78
2022/08/29 09:16:20;;;;;;;1.45;1.17;;;;;;;;;;2373542;56;21785;-78
2022/08/29 09:18:47;;;;;;;3.12;1.42;;;;;;;;;;2629594;52;21118;-79
2022/08/29 09:21:17;;;;;;;4.10;1.50;;;;;;;;;;2374626;56;21047;-78
2022/08/29 09:23:46;;;;;;;3.65;1.42;;;;;;;;;;2628222;52;21118;-78
2022/08/29 09:26:15;;;;;;;2.25;1.30;;;;;;;;;;2374415;56;21023;-78
2022/08/29 09:28:42;;;;;;;1.92;1.10;;;;;;;;;;2374666;56;21042;-82
2022/08/29 09:31:23;;;;;;;2.20;1.15;;;;;;;;;;2628963;52;21126;-82
2022/08/29 09:33:51;;;;;;;1.33;0.98;;;;;;;;;;2373511;56;21117;-80
2022/08/29 09:36:34;;;;;;;2.12;1.08;;;;;;;;;;2373689;56;21103;-79
2022/08/29 09:39:10;;;;;;;1.33;1.00;;;;;;;;;;2376761;56;21027;-78
2022/08/29 09:41:38;;;;;;;0.93;0.80;;;;;;;;;;2375988;56;21019;-78
2022/08/29 09:44:06;;;;;;;2.22;0.80;;;;;;;;;;2376149;56;21181;-79
2022/08/29 09:46:33;;;;;;;1.00;0.90;;;;;;;;;;2375655;56;21671;-78
2022/08/29 09:49:11;;;;;;;0.85;0.73;;;;;;;;;;2376186;56;21521;-77
2022/08/29 09:51:40;;;;;;;1.75;0.77;;;;;;;;;;2630415;52;21509;-78
2022/08/29 09:54:12;;;;;;;1.92;0.93;;;;;;;;;;2629885;52;21028;-81
2022/08/29 09:56:39;;;;;;;4.55;1.62;;;;;;;;;;2376172;56;21023;-78
2022/08/29 09:59:16;;;;;;;2.03;1.10;;;;;;;;;;2376801;56;21034;-78
2022/08/29 10:01:43;;;;;;;1.55;0.80;;;;;;;;;;2376286;56;21020;-78
2022/08/29 10:04:10;;;;;;;1.58;0.90;;;;;;;;;;2376508;56;21038;-78
2022/08/29 10:06:39;;;;;;;5.10;0.88;;;;;;;;;;2628203;52;21197;-78
2022/08/29 10:09:08;;;;;;;1.60;0.98;;;;;;;;;;2629167;51;21112;-82
2022/08/29 10:11:37;;;;;;;2.25;1.15;;;;;;;;;;2375313;56;21090;-78
2022/08/29 10:14:06;;;;;;;4.25;0.82;;;;;;;;;;2375162;56;21126;-81
2022/08/29 10:16:38;;;;;;;2.20;1.00;;;;;;;;;;2375344;56;21099;-79
2022/08/29 10:19:10;;;;;;;2.47;0.70;;;;;;;;;;2375592;56;21035;-78
2022/08/29 10:21:40;;;;;;;1.05;0.95;;;;;;;;;;2375792;56;21027;-77
2022/08/29 10:24:12;;;;;;;1.20;0.80;;;;;;;;;;2629436;52;21026;-81
2022/08/29 10:26:43;;;;;;;1.30;1.00;;;;;;;;;;2627391;52;21102;-79
2022/08/29 10:29:14;;;;;;;1.27;0.90;;;;;;;;;;2375309;56;21046;-78
2022/08/29 10:31:45;;;;;;;1.85;1.12;;;;;;;;;;2375476;56;21042;-78
2022/08/29 10:34:29;;;;;;;2.30;1.40;;;;;;;;;;2375635;56;21313;-77
2022/08/29 10:36:59;;;;;;;3.00;1.20;;;;;;;;;;2375197;56;21091;-81
2022/08/29 10:39:29;;;;;;;1.30;1.08;;;;;;;;;;2375724;56;21300;-78
2022/08/29 10:41:59;;;;;;;3.83;1.75;;;;;;;;;;2374777;56;21715;-82
2022/08/29 10:44:33;;;;;;;1.30;1.10;;;;;;;;;;2629173;52;21027;-78
2022/08/29 10:47:12;;;;;;;10.07;1.30;;;;;;;;;;2375289;56;21027;-77
2022/08/29 10:49:45;;;;;;;3.97;0.93;;;;;;;;;;2629260;51;21039;-82
2022/08/29 10:52:11;;;;;;;;;;;;;;;;;;2379444;56;21091;-78
2022/08/29 10:54:43;;;;;;;2.62;1.23;;;;;;;;;;2628966;52;20164;-77
2022/08/29 10:57:11;;;;;;;1.45;1.05;;;;;;;;;;2628070;52;21099;-78
2022/08/29 10:59:43;;;;;;;2.70;1.30;;;;;;;;;;2629062;52;21173;-78
2022/08/29 11:02:14;;;;;;;2.85;0.90;;;;;;;;;;2375705;56;21032;-79
2022/08/29 11:04:44;;;;;;;4.25;1.15;;;;;;;;;;2629491;52;21506;-78
2022/08/29 11:07:15;;;;;;;3.42;1.20;;;;;;;;;;2375356;56;21139;-78
2022/08/29 11:09:43;;;;;;;4.05;1.10;;;;;;;;;;2374902;56;21126;-78
2022/08/29 11:12:12;;;;;;;2.55;1.15;;;;;;;;;;2627820;52;21027;-81
2022/08/29 11:14:41;;;;;;;3.53;0.90;;;;;;;;;;2374102;56;21050;-78
2022/08/29 11:17:10;;;;;;;1.50;1.00;;;;;;;;;;2627077;52;21081;-78
2022/08/29 11:19:42;;;;;;;1.37;1.00;;;;;;;;;;2374276;56;21126;-82
2022/08/29 11:22:14;;;;;;;1.50;1.08;;;;;;;;;;2374179;56;21066;-79
2022/08/29 11:24:42;;;;;;;1.48;0.90;;;;;;;;;;2374802;56;21636;-81
2022/08/29 11:27:15;;;;;;;1.62;1.00;;;;;;;;;;2373349;56;21287;-80
2022/08/29 11:29:46;;;;;;;2.42;1.10;;;;;;;;;;2374862;56;21105;-78
2022/08/29 11:32:17;;;;;;;2.35;1.10;;;;;;;;;;2374135;56;21105;-82
2022/08/29 11:34:51;;;;;;;2.33;1.12;;;;;;;;;;2374782;56;21186;-79
2022/08/29 11:37:46;;;;;;;1.40;0.90;;;;;;;;;;2374601;56;21562;-79
2022/08/29 11:40:20;;;;;;;3.20;0.90;;;;;;;;;;2301716;56;21041;-77
2022/08/29 11:42:48;;;;;;;3.00;0.95;;;;;;;;;;2627232;52;21070;-79
2022/08/29 11:45:22;;;;;;;1.95;0.73;;;;;;;;;;2374492;56;21143;-78
2022/08/29 11:47:59;;;;;;;0.98;0.70;;;;;;;;;;2374799;56;21197;-78
2022/08/29 11:50:32;;;;;;;2.53;1.48;;;;;;;;;;2374855;56;21213;-81
2022/08/29 11:53:05;;;;;;;2.78;0.73;;;;;;;;;;2374878;56;21616;-81
2022/08/29 11:55:33;;;;;;;3.12;0.98;;;;;;;;;;2365893;56;21035;-78
2022/08/29 11:58:05;;;;;;;1.87;0.90;;;;;;;;;;2355756;57;21178;-79
2022/08/29 12:00:43;;;;;;;1.25;0.90;;;;;;;;;;2355459;57;21617;-78
2022/08/29 12:03:28;;;;;;;1.30;0.98;;;;;;;;;;2354800;57;21146;-79
2022/08/29 12:05:59;;;;;;;3.62;1.62;;;;;;;;;;2354056;57;21063;-79
2022/08/29 12:08:31;;;;;;;3.40;1.20;;;;;;;;;;2355839;56;21127;-80
2022/08/29 12:10:59;;;;;;;3.43;1.00;;;;;;;;;;2604458;52;21931;-79
2022/08/29 12:13:44;;;;;;;2.70;0.90;;;;;;;;;;2353916;57;21657;-79
2022/08/29 12:16:13;;;;;;;1.73;0.70;;;;;;;;;;2354465;57;21174;-79
2022/08/29 12:18:42;;;;;;;2.00;1.00;;;;;;;;;;2356131;57;21593;-78
2022/08/29 12:21:28;;;;;;;1.42;0.98;;;;;;;;;;2354803;57;21122;-80
2022/08/29 12:23:55;;;;;;;1.55;0.95;;;;;;;;;;2602917;52;21028;-80
2022/08/29 12:26:40;;;;;;;2.33;0.90;;;;;;;;;;2353600;56;21039;-79
2022/08/29 12:29:15;;;;;;;1.85;0.98;;;;;;;;;;2352588;56;21313;-81
2022/08/29 12:31:54;;;;;;;1.48;1.00;;;;;;;;;;2352669;57;21048;-78
2022/08/29 12:34:26;;;;;;;1.20;1.05;;;;;;;;;;2352929;56;21086;-79
2022/08/29 12:39:46;;;;;;;2.30;1.10;;;;;;;;;;2358384;57;22014;-80
2022/08/29 12:42:21;;;;;;;1.95;0.95;;;;;;;;;;2360197;56;21039;-81
2022/08/29 12:44:50;;;;;;;1.50;0.77;;;;;;;;;;2378574;56;21090;-79
2022/08/29 12:47:22;;;;;;;10.07;1.20;;;;;;;;;;2378081;56;21586;-81
2022/08/29 12:49:51;;;;;;;3.70;0.90;;;;;;;;;;2631094;52;21536;-81
2022/08/29 12:55:01;;;;;;;1.52;0.80;;;;;;;;;;2604392;53;22014;-77
2022/08/29 12:57:32;;;;;;;5.28;1.00;;;;;;;;;;2347361;57;21323;-77
2022/08/29 12:59:59;;;;;;;2.03;0.80;;;;;;;;;;2347624;57;21567;-80
2022/08/29 13:02:28;;;;;;;3.55;1.45;;;;;;;;;;2377733;54;21064;-77
2022/08/29 13:04:55;;;;;;;2.45;0.90;;;;;;;;;;2262135;59;21563;-78
2022/08/29 13:07:22;;;;;;;4.78;1.00;;;;;;;;;;2262262;59;21137;-77
2022/08/29 13:09:51;;;;;;;2.15;0.90;;;;;;;;;;2262663;59;21615;-77
2022/08/29 13:12:20;;;;;;;1.73;1.00;;;;;;;;;;2261976;59;21138;-78
2022/08/29 13:14:49;;;;;;;1.45;0.70;;;;;;;;;;2261625;59;21061;-78
2022/08/29 13:17:17;;;;;;;0.62;0.60;;;;;;;;;;2260973;59;21065;-77
2022/08/29 13:20:04;;;;;;;2.10;0.57;;;;;;;;;;2261153;59;21065;-78
2022/08/29 13:22:31;;;;;;;3.50;0.70;;;;;;;;;;2261234;59;21144;-77
2022/08/29 13:25:02;;;;;;;0.40;0.20;;;;;;;;;;2261494;59;21089;-78
2022/08/29 13:27:30;;;;;;;1.27;0.50;;;;;;;;;;2260261;59;21073;-77
2022/08/29 13:32:35;;;;;;;2.42;0.70;;;;;;;;;;2335011;57;22162;-78
2022/08/29 13:35:04;;;;;;;0.93;0.82;;;;;;;;;;2347344;57;21037;-78
2022/08/29 13:37:33;;;;;;;1.35;0.60;;;;;;;;;;2594645;53;21057;-79
2022/08/29 13:40:19;;;;;;;0.88;0.70;;;;;;;;;;2347661;57;21563;-78
2022/08/29 13:42:46;;;;;;;2.72;0.62;;;;;;;;;;2346992;57;21113;-78
2022/08/29 13:45:14;;;;;;;2.72;0.68;;;;;;;;;;2595157;53;21010;-78
2022/08/29 13:47:58;;;;;;;0.70;0.50;;;;;;;;;;2347173;57;21081;-78
2022/08/29 13:50:26;;;;;;;2.33;0.95;;;;;;;;;;2347904;57;21026;-78
2022/08/29 13:52:54;;;;;;;2.95;0.73;;;;;;;;;;2347856;57;21108;-78
2022/08/29 13:55:22;;;;;;;4.10;1.08;;;;;;;;;;2347422;57;21527;-78
2022/08/29 13:57:50;;;;;;;1.48;0.68;;;;;;;;;;2347920;57;21575;-78
2022/08/29 14:00:18;;;;;;;2.30;1.00;;;;;;;;;;2347663;57;21512;-78
2022/08/29 14:02:45;;;;;;;3.05;0.90;;;;;;;;;;2346897;57;21512;-78
2022/08/29 14:05:13;;;;;;;1.42;0.73;;;;;;;;;;2347842;57;21504;-78
2022/08/29 14:07:41;;;;;;;2.12;0.85;;;;;;;;;;2347430;57;21105;-78
2022/08/29 14:10:09;;;;;;;3.20;1.02;;;;;;;;;;2347927;57;21630;-78
2022/08/29 14:12:36;;;;;;;1.77;0.80;;;;;;;;;;2346221;57;21113;-78
2022/08/29 14:15:04;;;;;;;1.15;0.80;;;;;;;;;;2347429;57;22140;-78
2022/08/29 14:17:31;;;;;;;2.92;1.05;;;;;;;;;;2347282;57;21033;-78
2022/08/29 14:19:58;;;;;;;2.70;0.90;;;;;;;;;;2347212;57;21536;-78
2022/08/29 14:22:25;;;;;;;4.10;1.30;;;;;;;;;;2595193;53;21093;-78
2022/08/29 14:24:52;;;;;;;3.70;0.90;;;;;;;;;;2346558;57;21560;-78
2022/08/29 14:27:19;;;;;;;2.87;1.00;;;;;;;;;;2347004;57;21101;-78
2022/08/29 14:29:47;;;;;;;2.95;1.00;;;;;;;;;;2347717;57;21560;-78
2022/08/29 14:32:14;;;;;;;3.37;0.90;;;;;;;;;;2347433;57;21521;-78
2022/08/29 14:34:41;;;;;;;0.75;0.60;;;;;;;;;;2347661;57;21037;-78
2022/08/29 14:37:08;;;;;;;3.08;1.00;;;;;;;;;;2346257;57;21065;-78
2022/08/29 14:39:36;;;;;;;1.15;0.70;;;;;;;;;;2347241;57;21034;-78
2022/08/29 14:42:03;;;;;;;2.95;1.15;;;;;;;;;;2347120;57;21077;-78
2022/08/29 14:44:30;;;;;;;2.53;0.77;;;;;;;;;;2346184;57;21038;-78
2022/08/29 14:46:57;;;;;;;1.95;0.85;;;;;;;;;;2346235;57;21045;-78
2022/08/29 14:49:24;;;;;;;1.05;0.93;;;;;;;;;;2346860;57;21049;-78
2022/08/29 14:51:51;;;;;;;0.93;0.68;;;;;;;;;;2346371;57;21029;-78
2022/08/29 14:54:19;;;;;;;1.52;0.90;;;;;;;;;;2345913;57;21033;-78
2022/08/29 14:56:46;;;;;;;2.20;0.95;;;;;;;;;;2346368;57;21050;-78
2022/08/29 14:59:13;;;;;;;3.62;1.20;;;;;;;;;;2346587;57;21046;-77